Time,TemperatureF,DewpointF,PressureIn,WindDirection,WindDirectionDegrees,WindSpeedMPH,WindSpeedGustMPH,Humidity,HourlyPrecipIn,Conditions,Clouds,dailyrainin,SoftwareType,DateUTC
2013-03-09 00:02:00,45.1,41.0,30.07,SSE,159,1.0,6.0,84,0.00,,,0.00,weatherlink.com 1.10,2013-03-09 08:02:00,
2013-03-09 00:17:00,45.0,41.0,30.07,WSW,252,2.0,2.0,85,0.00,,,0.00,weatherlink.com 1.10,2013-03-09 08:17:00,
2013-03-09 00:32:00,44.9,41.0,30.08,SSW,208,2.0,2.0,85,0.00,,,0.00,weatherlink.com 1.10,2013-03-09 08:32:00,
2013-03-09 00:47:00,44.7,41.0,30.09,SE,135,0.0,1.0,86,0.00,,,0.00,weatherlink.com 1.10,2013-03-09 08:47:00,
2013-03-09 01:02:00,44.5,41.0,30.09,NW,318,3.0,3.0,86,0.00,,,0.00,weatherlink.com 1.10,2013-03-09 09:02:00,
2013-03-09 01:17:00,44.5,41.0,30.09,SSW,201,0.0,2.0,86,0.00,,,0.00,weatherlink.com 1.10,2013-03-09 09:17:00,
2013-03-09 01:32:00,44.4,40.0,30.10,West,269,1.0,4.0,84,0.00,,,0.00,weatherlink.com 1.10,2013-03-09 09:32:00,
2013-03-09 01:47:00,44.7,40.0,30.09,West,270,1.0,5.0,82,0.00,,,0.00,weatherlink.com 1.10,2013-03-09 09:47:00,
2013-03-09 02:02:00,44.6,39.0,30.09,West,273,5.0,8.0,82,0.00,,,0.00,weatherlink.com 1.10,2013-03-09 10:02:00,
2013-03-09 02:17:00,44.1,40.0,30.09,ESE,115,0.0,1.0,84,0.00,,,0.00,weatherlink.com 1.10,2013-03-09 10:17:00,
2013-03-09 02:32:00,43.8,39.0,30.09,ESE,112,0.0,3.0,84,0.00,,,0.00,weatherlink.com 1.10,2013-03-09 10:32:00,
2013-03-09 02:47:00,43.6,39.0,30.09,SSE,155,1.0,1.0,85,0.00,,,0.00,weatherlink.com 1.10,2013-03-09 10:47:00,
2013-03-09 03:02:00,42.9,40.0,30.09,SE,141,0.0,1.0,88,0.00,,,0.00,weatherlink.com 1.10,2013-03-09 11:02:00,
2013-03-09 03:17:00,42.3,39.0,30.09,SE,141,0.0,1.0,89,0.00,,,0.00,weatherlink.com 1.10,2013-03-09 11:17:00,
2013-03-09 03:32:00,41.8,39.0,30.10,SE,141,0.0,0.0,89,0.00,,,0.00,weatherlink.com 1.10,2013-03-09 11:32:00,
2013-03-09 03:47:00,41.4,39.0,30.11,SE,130,0.0,1.0,90,0.00,,,0.00,weatherlink.com 1.10,2013-03-09 11:47:00,
2013-03-09 04:02:00,41.5,39.0,30.12,SE,129,0.0,1.0,91,0.00,,,0.00,weatherlink.com 1.10,2013-03-09 12:02:00,
2013-03-09 04:17:00,41.5,39.0,30.12,SE,129,0.0,1.0,90,0.00,,,0.00,weatherlink.com 1.10,2013-03-09 12:17:00,
2013-03-09 04:32:00,41.6,39.0,30.14,SE,129,0.0,1.0,91,0.00,,,0.00,weatherlink.com 1.10,2013-03-09 12:32:00,
2013-03-09 04:47:00,41.7,39.0,30.14,SE,129,0.0,0.0,91,0.00,,,0.00,weatherlink.com 1.10,2013-03-09 12:47:00,
2013-03-09 05:02:00,41.9,40.0,30.15,SE,129,0.0,1.0,92,0.00,,,0.00,weatherlink.com 1.10,2013-03-09 13:02:00,
2013-03-09 05:17:00,41.9,40.0,30.15,SE,129,0.0,0.0,92,0.00,,,0.00,weatherlink.com 1.10,2013-03-09 13:17:00,
2013-03-09 05:32:00,42.1,40.0,30.15,SE,130,0.0,1.0,92,0.00,,,0.00,weatherlink.com 1.10,2013-03-09 13:32:00,
2013-03-09 05:48:00,42.4,41.0,30.17,SE,130,0.0,0.0,93,0.00,,,0.00,weatherlink.com 1.10,2013-03-09 13:48:00,
2013-03-09 06:03:00,43.1,41.0,30.17,West,271,1.0,2.0,93,0.00,,,0.00,weatherlink.com 1.10,2013-03-09 14:03:00,
2013-03-09 06:18:00,43.8,42.0,30.17,WSW,252,0.0,2.0,92,0.00,,,0.00,weatherlink.com 1.10,2013-03-09 14:18:00,
2013-03-09 06:33:00,43.9,42.0,30.17,WSW,252,0.0,0.0,92,0.00,,,0.00,weatherlink.com 1.10,2013-03-09 14:33:00,
2013-03-09 06:48:00,43.9,42.0,30.18,WSW,252,0.0,0.0,91,0.00,,,0.00,weatherlink.com 1.10,2013-03-09 14:48:00,
2013-03-09 07:03:00,43.5,41.0,30.18,WSW,252,0.0,0.0,92,0.00,,,0.00,weatherlink.com 1.10,2013-03-09 15:03:00,
2013-03-09 07:18:00,43.6,42.0,30.19,WSW,252,0.0,0.0,92,0.00,,,0.00,weatherlink.com 1.10,2013-03-09 15:18:00,
2013-03-09 07:33:00,43.9,42.0,30.19,SSW,205,0.0,1.0,93,0.00,,,0.00,weatherlink.com 1.10,2013-03-09 15:33:00,
2013-03-09 07:48:00,44.6,42.0,30.20,SW,231,0.0,1.0,91,0.00,,,0.00,weatherlink.com 1.10,2013-03-09 15:48:00,
2013-03-09 08:03:00,45.3,41.0,30.20,ESE,121,0.0,4.0,86,0.00,,,0.00,weatherlink.com 1.10,2013-03-09 16:03:00,
2013-03-09 08:18:00,45.9,41.0,30.21,NW,304,1.0,6.0,84,0.00,,,0.00,weatherlink.com 1.10,2013-03-09 16:18:00,
2013-03-09 08:33:00,46.3,41.0,30.21,West,281,2.0,2.0,83,0.00,,,0.00,weatherlink.com 1.10,2013-03-09 16:33:00,
2013-03-09 08:48:00,46.6,42.0,30.22,West,273,0.0,3.0,84,0.00,,,0.00,weatherlink.com 1.10,2013-03-09 16:48:00,
2013-03-09 09:03:00,46.3,42.0,30.22,SW,233,1.0,1.0,85,0.00,,,0.00,weatherlink.com 1.10,2013-03-09 17:03:00,
2013-03-09 09:18:00,46.9,42.0,30.22,SW,214,1.0,1.0,83,0.00,,,0.00,weatherlink.com 1.10,2013-03-09 17:18:00,
2013-03-09 09:33:00,47.7,43.0,30.22,West,275,1.0,1.0,83,0.00,,,0.00,weatherlink.com 1.10,2013-03-09 17:33:00,
2013-03-09 09:48:00,48.7,43.0,30.22,SSW,210,0.0,1.0,81,0.00,,,0.00,weatherlink.com 1.10,2013-03-09 17:48:00,
2013-03-09 10:03:00,50.0,43.0,30.23,NW,323,1.0,5.0,77,0.00,,,0.00,weatherlink.com 1.10,2013-03-09 18:03:00,
2013-03-09 10:18:00,52.0,42.0,30.24,SW,224,4.0,5.0,69,0.00,,,0.00,weatherlink.com 1.10,2013-03-09 18:18:00,
2013-03-09 10:33:00,52.5,42.0,30.24,NW,307,0.0,3.0,67,0.00,,,0.00,weatherlink.com 1.10,2013-03-09 18:33:00,
2013-03-09 10:48:00,53.4,40.0,30.24,SW,233,1.0,6.0,62,0.00,,,0.00,weatherlink.com 1.10,2013-03-09 18:48:00,
2013-03-09 11:03:00,54.2,41.0,30.24,SSE,160,1.0,7.0,62,0.00,,,0.00,weatherlink.com 1.10,2013-03-09 19:03:00,
2013-03-09 11:18:00,55.3,41.0,30.25,SW,221,4.0,7.0,59,0.00,,,0.00,weatherlink.com 1.10,2013-03-09 19:18:00,
2013-03-09 11:33:00,56.1,42.0,30.25,SW,215,1.0,5.0,59,0.00,,,0.00,weatherlink.com 1.10,2013-03-09 19:33:00,
2013-03-09 11:48:00,55.8,40.0,30.25,WSW,256,4.0,9.0,56,0.00,,,0.00,weatherlink.com 1.10,2013-03-09 19:48:00,
2013-03-09 12:03:00,55.8,40.0,30.25,WNW,288,1.0,11.0,55,0.00,,,0.00,weatherlink.com 1.10,2013-03-09 20:03:00,
2013-03-09 12:19:00,56.3,41.0,30.25,WNW,299,7.0,11.0,57,0.00,,,0.00,weatherlink.com 1.10,2013-03-09 20:19:00,
2013-03-09 12:34:00,56.1,41.0,30.25,SW,234,2.0,7.0,57,0.00,,,0.00,weatherlink.com 1.10,2013-03-09 20:34:00,
2013-03-09 12:49:00,56.2,39.0,30.24,WSW,253,5.0,9.0,53,0.00,,,0.00,weatherlink.com 1.10,2013-03-09 20:49:00,
2013-03-09 13:04:00,56.3,41.0,30.24,SW,228,0.0,9.0,56,0.00,,,0.00,weatherlink.com 1.10,2013-03-09 21:04:00,
2013-03-09 13:19:00,56.5,40.0,30.23,NW,326,2.0,10.0,54,0.00,,,0.00,weatherlink.com 1.10,2013-03-09 21:19:00,
2013-03-09 13:34:00,56.4,40.0,30.24,WNW,303,2.0,6.0,55,0.00,,,0.00,weatherlink.com 1.10,2013-03-09 21:34:00,
2013-03-09 13:49:00,57.1,39.0,30.24,ENE,69,1.0,8.0,51,0.00,,,0.00,weatherlink.com 1.10,2013-03-09 21:49:00,
2013-03-09 14:04:00,57.5,40.0,30.24,WSW,242,2.0,6.0,53,0.00,,,0.00,weatherlink.com 1.10,2013-03-09 22:04:00,
2013-03-09 14:19:00,57.7,39.0,30.23,WSW,237,0.0,6.0,51,0.00,,,0.00,weatherlink.com 1.10,2013-03-09 22:19:00,
2013-03-09 14:34:00,58.3,40.0,30.23,SSW,197,4.0,7.0,50,0.00,,,0.00,weatherlink.com 1.10,2013-03-09 22:34:00,
2013-03-09 14:49:00,58.4,37.0,30.23,SW,228,3.0,10.0,45,0.00,,,0.00,weatherlink.com 1.10,2013-03-09 22:49:00,
2013-03-09 15:04:00,59.1,38.0,30.23,ESE,110,0.0,6.0,46,0.00,,,0.00,weatherlink.com 1.10,2013-03-09 23:04:00,
2013-03-09 15:19:00,59.0,36.0,30.23,West,267,1.0,7.0,42,0.00,,,0.00,weatherlink.com 1.10,2013-03-09 23:19:00,
2013-03-09 15:34:00,58.8,38.0,30.23,SW,214,1.0,4.0,47,0.00,,,0.00,weatherlink.com 1.10,2013-03-09 23:34:00,
2013-03-09 15:49:00,58.8,39.0,30.23,SSE,163,4.0,7.0,48,0.00,,,0.00,weatherlink.com 1.10,2013-03-09 23:49:00,
2013-03-09 16:04:00,60.2,38.0,30.22,WNW,302,0.0,6.0,44,0.00,,,0.00,weatherlink.com 1.10,2013-03-10 00:04:00,
2013-03-09 16:19:00,59.8,37.0,30.22,SW,217,3.0,6.0,43,0.00,,,0.00,weatherlink.com 1.10,2013-03-10 00:19:00,
2013-03-09 16:34:00,60.3,36.0,30.22,SSW,193,3.0,11.0,41,0.00,,,0.00,weatherlink.com 1.10,2013-03-10 00:34:00,
2013-03-09 16:49:00,59.9,37.0,30.22,ENE,59,0.0,5.0,42,0.00,,,0.00,weatherlink.com 1.10,2013-03-10 00:49:00,
2013-03-09 17:19:00,57.4,38.0,30.23,West,266,3.0,3.0,49,0.00,,,0.00,weatherlink.com 1.10,2013-03-10 01:19:00,
2013-03-09 17:35:00,58.1,38.0,30.23,SW,226,2.0,2.0,48,0.00,,,0.00,weatherlink.com 1.10,2013-03-10 01:35:00,
2013-03-09 17:49:00,57.6,38.0,30.24,SSW,194,2.0,3.0,49,0.00,,,0.00,weatherlink.com 1.10,2013-03-10 01:49:00,
2013-03-09 18:04:00,56.7,40.0,30.24,SSW,194,0.0,2.0,53,0.00,,,0.00,weatherlink.com 1.10,2013-03-10 02:04:00,
2013-03-09 18:19:00,55.9,39.0,30.24,SSW,198,0.0,2.0,53,0.00,,,0.00,weatherlink.com 1.10,2013-03-10 02:19:00,
2013-03-09 18:34:00,54.7,41.0,30.25,SSW,198,0.0,1.0,60,0.00,,,0.00,weatherlink.com 1.10,2013-03-10 02:34:00,
2013-03-09 18:49:00,52.2,42.0,30.25,SSW,200,0.0,0.0,68,0.00,,,0.00,weatherlink.com 1.10,2013-03-10 02:49:00,
2013-03-09 19:04:00,50.7,42.0,30.25,SSW,200,0.0,0.0,73,0.00,,,0.00,weatherlink.com 1.10,2013-03-10 03:04:00,
2013-03-09 19:19:00,49.3,42.0,30.25,SSW,198,0.0,1.0,77,0.00,,,0.00,weatherlink.com 1.10,2013-03-10 03:19:00,
2013-03-09 19:34:00,48.3,42.0,30.25,SSW,198,0.0,0.0,78,0.00,,,0.00,weatherlink.com 1.10,2013-03-10 03:34:00,
2013-03-09 19:49:00,47.3,41.0,30.25,SSW,197,0.0,0.0,80,0.00,,,0.00,weatherlink.com 1.10,2013-03-10 03:49:00,
2013-03-09 20:04:00,46.5,41.0,30.27,SSW,198,0.0,0.0,81,0.00,,,0.00,weatherlink.com 1.10,2013-03-10 04:04:00,
2013-03-09 20:19:00,45.5,41.0,30.27,SSW,197,0.0,0.0,83,0.00,,,0.00,weatherlink.com 1.10,2013-03-10 04:19:00,
2013-03-09 20:34:00,44.7,41.0,30.28,SSE,149,0.0,1.0,85,0.00,,,0.00,weatherlink.com 1.10,2013-03-10 04:34:00,
2013-03-09 20:49:00,44.1,40.0,30.28,SSE,150,0.0,0.0,86,0.00,,,0.00,weatherlink.com 1.10,2013-03-10 04:49:00,
2013-03-09 21:04:00,43.6,40.0,30.29,SE,141,0.0,1.0,87,0.00,,,0.00,weatherlink.com 1.10,2013-03-10 05:04:00,
2013-03-09 21:19:00,43.1,40.0,30.29,SE,141,0.0,0.0,88,0.00,,,0.00,weatherlink.com 1.10,2013-03-10 05:19:00,
2013-03-09 21:34:00,42.6,40.0,30.29,SE,141,0.0,0.0,89,0.00,,,0.00,weatherlink.com 1.10,2013-03-10 05:34:00,
2013-03-09 21:49:00,42.3,39.0,30.29,SE,141,0.0,0.0,89,0.00,,,0.00,weatherlink.com 1.10,2013-03-10 05:49:00,
2013-03-09 22:04:00,41.7,39.0,30.29,SE,141,0.0,0.0,90,0.00,,,0.00,weatherlink.com 1.10,2013-03-10 06:04:00,
2013-03-09 22:19:00,41.4,39.0,30.29,SE,141,0.0,0.0,91,0.00,,,0.00,weatherlink.com 1.10,2013-03-10 06:19:00,
2013-03-09 22:34:00,41.1,39.0,30.29,SE,141,0.0,0.0,91,0.00,,,0.00,weatherlink.com 1.10,2013-03-10 06:34:00,
2013-03-09 22:49:00,40.7,39.0,30.29,SE,130,0.0,0.0,92,0.00,,,0.00,weatherlink.com 1.10,2013-03-10 06:49:00,
2013-03-09 23:04:00,40.7,39.0,30.29,East,86,1.0,1.0,92,0.00,,,0.00,weatherlink.com 1.10,2013-03-10 07:04:00,
2013-03-09 23:19:00,40.4,38.0,30.29,East,86,0.0,1.0,92,0.00,,,0.00,weatherlink.com 1.10,2013-03-10 07:19:00,
2013-03-09 23:34:00,40.0,38.0,30.28,East,85,0.0,1.0,92,0.00,,,0.00,weatherlink.com 1.10,2013-03-10 07:34:00,
2013-03-09 23:49:00,39.6,38.0,30.28,East,86,0.0,1.0,92,0.00,,,0.00,weatherlink.com 1.10,2013-03-10 07:49:00,